sensor_id;sensor_type;location;lat;lon;timestamp;P1;durP1;ratioP1;P2;durP2;ratioP2
73437;SDS011;66471;56.532;21.020;2023-01-19T00:00:53;37.33;;;16.92;;
73437;SDS011;66471;56.532;21.020;2023-01-19T00:03:20;31.83;;;14.53;;
73437;SDS011;66471;56.532;21.020;2023-01-19T00:05:47;40.70;;;19.10;;
73437;SDS011;66471;56.532;21.020;2023-01-19T00:08:15;35.20;;;15.65;;
73437;SDS011;66471;56.532;21.020;2023-01-19T00:10:44;31.00;;;13.98;;
73437;SDS011;66471;56.532;21.020;2023-01-19T00:13:13;34.70;;;15.43;;
73437;SDS011;66471;56.532;21.020;2023-01-19T00:15:42;30.77;;;14.27;;
73437;SDS011;66471;56.532;21.020;2023-01-19T00:18:09;28.13;;;12.88;;
73437;SDS011;66471;56.532;21.020;2023-01-19T00:20:37;27.08;;;14.25;;
73437;SDS011;66471;56.532;21.020;2023-01-19T00:23:05;24.95;;;11.43;;
73437;SDS011;66471;56.532;21.020;2023-01-19T00:25:34;26.10;;;11.68;;
73437;SDS011;66471;56.532;21.020;2023-01-19T00:28:02;25.60;;;12.87;;
73437;SDS011;66471;56.532;21.020;2023-01-19T00:30:29;20.52;;;10.05;;
73437;SDS011;66471;56.532;21.020;2023-01-19T00:32:56;22.05;;;10.23;;
73437;SDS011;66471;56.532;21.020;2023-01-19T00:35:24;18.13;;;8.93;;
73437;SDS011;66471;56.532;21.020;2023-01-19T00:37:51;19.42;;;9.70;;
73437;SDS011;66471;56.532;21.020;2023-01-19T00:40:18;13.13;;;6.50;;
73437;SDS011;66471;56.532;21.020;2023-01-19T00:42:45;13.52;;;6.22;;
73437;SDS011;66471;56.532;21.020;2023-01-19T00:45:14;12.27;;;6.60;;
73437;SDS011;66471;56.532;21.020;2023-01-19T00:47:51;12.70;;;6.47;;
73437;SDS011;66471;56.532;21.020;2023-01-19T00:50:23;11.70;;;5.40;;
73437;SDS011;66471;56.532;21.020;2023-01-19T00:52:52;11.73;;;5.17;;
73437;SDS011;66471;56.532;21.020;2023-01-19T00:55:20;11.85;;;5.25;;
73437;SDS011;66471;56.532;21.020;2023-01-19T00:57:48;10.25;;;5.45;;
73437;SDS011;66471;56.532;21.020;2023-01-19T01:00:16;9.77;;;4.50;;
73437;SDS011;66471;56.532;21.020;2023-01-19T01:02:48;11.23;;;5.40;;
73437;SDS011;66471;56.532;21.020;2023-01-19T01:05:17;15.03;;;7.97;;
73437;SDS011;66471;56.532;21.020;2023-01-19T01:07:45;14.18;;;6.68;;
73437;SDS011;66471;56.532;21.020;2023-01-19T01:10:19;11.90;;;7.07;;
73437;SDS011;66471;56.532;21.020;2023-01-19T01:12:50;12.25;;;6.38;;
73437;SDS011;66471;56.532;21.020;2023-01-19T01:15:37;9.98;;;5.47;;
73437;SDS011;66471;56.532;21.020;2023-01-19T01:18:04;11.77;;;4.60;;
73437;SDS011;66471;56.532;21.020;2023-01-19T01:20:31;15.32;;;10.75;;
73437;SDS011;66471;56.532;21.020;2023-01-19T01:23:00;14.80;;;8.63;;
73437;SDS011;66471;56.532;21.020;2023-01-19T01:25:28;11.23;;;4.50;;
73437;SDS011;66471;56.532;21.020;2023-01-19T01:27:56;14.32;;;8.32;;
73437;SDS011;66471;56.532;21.020;2023-01-19T01:30:23;12.40;;;7.23;;
73437;SDS011;66471;56.532;21.020;2023-01-19T01:32:50;13.80;;;7.13;;
73437;SDS011;66471;56.532;21.020;2023-01-19T01:35:21;14.90;;;6.03;;
73437;SDS011;66471;56.532;21.020;2023-01-19T01:37:48;11.07;;;5.25;;
73437;SDS011;66471;56.532;21.020;2023-01-19T01:40:16;10.20;;;4.75;;
73437;SDS011;66471;56.532;21.020;2023-01-19T01:42:44;7.90;;;3.67;;
73437;SDS011;66471;56.532;21.020;2023-01-19T01:47:47;9.63;;;4.15;;
73437;SDS011;66471;56.532;21.020;2023-01-19T01:50:25;6.20;;;3.00;;
73437;SDS011;66471;56.532;21.020;2023-01-19T01:52:57;7.88;;;3.72;;
73437;SDS011;66471;56.532;21.020;2023-01-19T01:55:32;7.77;;;2.90;;
73437;SDS011;66471;56.532;21.020;2023-01-19T01:58:03;8.27;;;2.70;;
73437;SDS011;66471;56.532;21.020;2023-01-19T02:00:33;8.25;;;2.90;;
73437;SDS011;66471;56.532;21.020;2023-01-19T02:03:19;7.80;;;2.53;;
73437;SDS011;66471;56.532;21.020;2023-01-19T02:05:48;8.13;;;3.15;;
73437;SDS011;66471;56.532;21.020;2023-01-19T02:08:41;8.07;;;2.67;;
73437;SDS011;66471;56.532;21.020;2023-01-19T02:11:26;8.52;;;2.63;;
73437;SDS011;66471;56.532;21.020;2023-01-19T02:14:14;6.88;;;2.88;;
73437;SDS011;66471;56.532;21.020;2023-01-19T02:16:41;6.35;;;3.08;;
73437;SDS011;66471;56.532;21.020;2023-01-19T02:19:08;7.82;;;3.58;;
73437;SDS011;66471;56.532;21.020;2023-01-19T02:21:51;7.93;;;2.77;;
73437;SDS011;66471;56.532;21.020;2023-01-19T02:24:26;6.95;;;2.55;;
73437;SDS011;66471;56.532;21.020;2023-01-19T02:26:54;8.52;;;3.50;;
73437;SDS011;66471;56.532;21.020;2023-01-19T02:29:23;7.90;;;3.10;;
73437;SDS011;66471;56.532;21.020;2023-01-19T02:31:52;5.65;;;3.35;;
73437;SDS011;66471;56.532;21.020;2023-01-19T02:34:21;5.80;;;2.20;;
73437;SDS011;66471;56.532;21.020;2023-01-19T02:39:28;6.32;;;2.35;;
73437;SDS011;66471;56.532;21.020;2023-01-19T02:42:11;7.90;;;2.80;;
73437;SDS011;66471;56.532;21.020;2023-01-19T02:44:45;6.22;;;2.90;;
73437;SDS011;66471;56.532;21.020;2023-01-19T02:47:15;5.97;;;2.50;;
73437;SDS011;66471;56.532;21.020;2023-01-19T02:49:43;4.50;;;2.25;;
73437;SDS011;66471;56.532;21.020;2023-01-19T02:52:14;7.53;;;2.67;;
73437;SDS011;66471;56.532;21.020;2023-01-19T02:54:45;6.40;;;2.83;;
73437;SDS011;66471;56.532;21.020;2023-01-19T06:01:32;8.73;;;3.20;;
73437;SDS011;66471;56.532;21.020;2023-01-19T06:04:04;7.78;;;3.95;;
73437;SDS011;66471;56.532;21.020;2023-01-19T06:06:31;7.00;;;3.78;;
73437;SDS011;66471;56.532;21.020;2023-01-19T06:08:58;8.63;;;4.15;;
73437;SDS011;66471;56.532;21.020;2023-01-19T06:11:25;10.45;;;3.17;;
73437;SDS011;66471;56.532;21.020;2023-01-19T06:13:52;10.73;;;3.70;;
73437;SDS011;66471;56.532;21.020;2023-01-19T06:16:19;14.60;;;4.13;;
73437;SDS011;66471;56.532;21.020;2023-01-19T06:18:47;16.73;;;5.97;;
73437;SDS011;66471;56.532;21.020;2023-01-19T06:21:14;14.15;;;4.90;;
73437;SDS011;66471;56.532;21.020;2023-01-19T06:23:41;10.15;;;4.93;;
73437;SDS011;66471;56.532;21.020;2023-01-19T06:26:08;10.13;;;3.97;;
73437;SDS011;66471;56.532;21.020;2023-01-19T06:28:35;9.15;;;4.53;;
73437;SDS011;66471;56.532;21.020;2023-01-19T06:31:02;10.20;;;4.13;;
73437;SDS011;66471;56.532;21.020;2023-01-19T06:33:30;10.13;;;3.70;;
73437;SDS011;66471;56.532;21.020;2023-01-19T06:35:57;10.55;;;3.85;;
73437;SDS011;66471;56.532;21.020;2023-01-19T06:38:24;9.97;;;4.00;;
73437;SDS011;66471;56.532;21.020;2023-01-19T06:40:54;9.85;;;3.08;;
73437;SDS011;66471;56.532;21.020;2023-01-19T06:43:24;7.35;;;3.30;;
73437;SDS011;66471;56.532;21.020;2023-01-19T06:45:52;8.18;;;3.63;;
73437;SDS011;66471;56.532;21.020;2023-01-19T06:48:20;9.95;;;3.40;;
73437;SDS011;66471;56.532;21.020;2023-01-19T06:50:47;6.70;;;2.73;;
73437;SDS011;66471;56.532;21.020;2023-01-19T06:53:15;6.93;;;2.70;;
73437;SDS011;66471;56.532;21.020;2023-01-19T06:55:42;8.45;;;3.03;;
73437;SDS011;66471;56.532;21.020;2023-01-19T06:58:10;6.25;;;2.75;;
73437;SDS011;66471;56.532;21.020;2023-01-19T07:00:37;7.22;;;3.45;;
73437;SDS011;66471;56.532;21.020;2023-01-19T07:03:05;8.43;;;3.27;;
73437;SDS011;66471;56.532;21.020;2023-01-19T07:05:38;7.57;;;2.10;;
73437;SDS011;66471;56.532;21.020;2023-01-19T07:08:05;6.38;;;2.75;;
73437;SDS011;66471;56.532;21.020;2023-01-19T07:10:32;7.60;;;2.90;;
73437;SDS011;66471;56.532;21.020;2023-01-19T07:13:19;10.75;;;3.63;;
73437;SDS011;66471;56.532;21.020;2023-01-19T07:15:47;9.47;;;2.90;;
73437;SDS011;66471;56.532;21.020;2023-01-19T07:18:15;5.43;;;2.80;;
73437;SDS011;66471;56.532;21.020;2023-01-19T07:20:42;7.40;;;2.33;;
73437;SDS011;66471;56.532;21.020;2023-01-19T07:23:11;6.35;;;2.63;;
73437;SDS011;66471;56.532;21.020;2023-01-19T07:25:38;6.05;;;2.38;;
73437;SDS011;66471;56.532;21.020;2023-01-19T07:28:05;6.07;;;2.27;;
73437;SDS011;66471;56.532;21.020;2023-01-19T07:30:32;7.03;;;2.20;;
73437;SDS011;66471;56.532;21.020;2023-01-19T07:32:59;5.35;;;2.53;;
73437;SDS011;66471;56.532;21.020;2023-01-19T07:35:28;6.32;;;2.33;;
73437;SDS011;66471;56.532;21.020;2023-01-19T07:37:55;7.38;;;3.25;;
73437;SDS011;66471;56.532;21.020;2023-01-19T07:40:22;10.03;;;2.90;;
73437;SDS011;66471;56.532;21.020;2023-01-19T07:42:49;5.55;;;2.75;;
73437;SDS011;66471;56.532;21.020;2023-01-19T07:45:17;10.75;;;3.78;;
73437;SDS011;66471;56.532;21.020;2023-01-19T07:47:46;6.40;;;2.90;;
73437;SDS011;66471;56.532;21.020;2023-01-19T07:50:14;8.90;;;3.40;;
73437;SDS011;66471;56.532;21.020;2023-01-19T07:52:43;5.70;;;1.73;;
73437;SDS011;66471;56.532;21.020;2023-01-19T07:55:11;6.32;;;1.98;;
73437;SDS011;66471;56.532;21.020;2023-01-19T07:57:38;7.05;;;2.58;;
73437;SDS011;66471;56.532;21.020;2023-01-19T08:00:05;6.90;;;2.65;;
73437;SDS011;66471;56.532;21.020;2023-01-19T08:02:34;7.47;;;2.83;;
73437;SDS011;66471;56.532;21.020;2023-01-19T08:05:02;10.20;;;3.23;;
73437;SDS011;66471;56.532;21.020;2023-01-19T08:07:29;10.10;;;3.75;;
73437;SDS011;66471;56.532;21.020;2023-01-19T08:09:58;14.50;;;5.15;;
73437;SDS011;66471;56.532;21.020;2023-01-19T08:12:25;15.35;;;5.88;;
73437;SDS011;66471;56.532;21.020;2023-01-19T08:14:52;10.32;;;3.55;;
73437;SDS011;66471;56.532;21.020;2023-01-19T08:17:19;6.60;;;2.90;;
73437;SDS011;66471;56.532;21.020;2023-01-19T08:19:46;5.53;;;2.60;;
73437;SDS011;66471;56.532;21.020;2023-01-19T08:22:13;9.95;;;3.20;;
73437;SDS011;66471;56.532;21.020;2023-01-19T08:24:40;7.50;;;2.60;;
73437;SDS011;66471;56.532;21.020;2023-01-19T08:27:07;4.95;;;2.22;;
73437;SDS011;66471;56.532;21.020;2023-01-19T08:29:40;5.87;;;2.00;;
73437;SDS011;66471;56.532;21.020;2023-01-19T08:32:07;6.13;;;3.17;;
73437;SDS011;66471;56.532;21.020;2023-01-19T08:34:34;5.35;;;2.42;;
73437;SDS011;66471;56.532;21.020;2023-01-19T08:37:01;6.18;;;1.92;;
73437;SDS011;66471;56.532;21.020;2023-01-19T08:39:28;7.32;;;2.10;;
73437;SDS011;66471;56.532;21.020;2023-01-19T08:41:56;5.80;;;1.83;;
73437;SDS011;66471;56.532;21.020;2023-01-19T08:44:25;13.00;;;4.80;;
73437;SDS011;66471;56.532;21.020;2023-01-19T08:46:52;18.48;;;8.48;;
73437;SDS011;66471;56.532;21.020;2023-01-19T08:49:20;12.60;;;5.22;;
73437;SDS011;66471;56.532;21.020;2023-01-19T08:51:47;8.52;;;4.13;;
73437;SDS011;66471;56.532;21.020;2023-01-19T08:54:14;5.50;;;2.07;;
73437;SDS011;66471;56.532;21.020;2023-01-19T08:56:43;5.65;;;2.03;;
73437;SDS011;66471;56.532;21.020;2023-01-19T08:59:10;5.05;;;2.60;;
73437;SDS011;66471;56.532;21.020;2023-01-19T09:01:39;7.50;;;2.75;;
73437;SDS011;66471;56.532;21.020;2023-01-19T09:04:07;5.80;;;2.03;;
73437;SDS011;66471;56.532;21.020;2023-01-19T09:06:34;5.67;;;2.40;;
73437;SDS011;66471;56.532;21.020;2023-01-19T09:09:01;5.70;;;2.90;;
73437;SDS011;66471;56.532;21.020;2023-01-19T09:11:28;6.78;;;3.00;;
73437;SDS011;66471;56.532;21.020;2023-01-19T09:13:56;5.35;;;2.08;;
73437;SDS011;66471;56.532;21.020;2023-01-19T09:16:23;7.60;;;3.10;;
73437;SDS011;66471;56.532;21.020;2023-01-19T09:18:52;13.00;;;7.13;;
73437;SDS011;66471;56.532;21.020;2023-01-19T09:21:19;23.73;;;10.90;;
73437;SDS011;66471;56.532;21.020;2023-01-19T09:23:46;22.60;;;12.07;;
73437;SDS011;66471;56.532;21.020;2023-01-19T09:26:14;11.75;;;5.78;;
73437;SDS011;66471;56.532;21.020;2023-01-19T09:28:42;7.60;;;4.65;;
73437;SDS011;66471;56.532;21.020;2023-01-19T09:31:09;11.83;;;5.30;;
73437;SDS011;66471;56.532;21.020;2023-01-19T09:33:36;12.52;;;5.95;;
73437;SDS011;66471;56.532;21.020;2023-01-19T09:36:04;9.43;;;4.43;;
73437;SDS011;66471;56.532;21.020;2023-01-19T09:38:31;18.67;;;7.28;;
73437;SDS011;66471;56.532;21.020;2023-01-19T09:40:59;14.27;;;6.13;;
73437;SDS011;66471;56.532;21.020;2023-01-19T09:46:15;12.68;;;6.00;;
73437;SDS011;66471;56.532;21.020;2023-01-19T09:48:51;9.07;;;5.05;;
73437;SDS011;66471;56.532;21.020;2023-01-19T09:56:54;13.33;;;5.10;;
73437;SDS011;66471;56.532;21.020;2023-01-19T09:59:28;9.98;;;4.95;;
73437;SDS011;66471;56.532;21.020;2023-01-19T10:04:49;9.85;;;4.95;;
73437;SDS011;66471;56.532;21.020;2023-01-19T10:10:23;8.20;;;3.57;;
73437;SDS011;66471;56.532;21.020;2023-01-19T10:15:50;7.40;;;3.25;;
73437;SDS011;66471;56.532;21.020;2023-01-19T10:18:41;9.90;;;4.05;;
73437;SDS011;66471;56.532;21.020;2023-01-19T10:21:16;8.93;;;4.55;;
73437;SDS011;66471;56.532;21.020;2023-01-19T10:24:02;15.17;;;7.63;;
73437;SDS011;66471;56.532;21.020;2023-01-19T10:26:33;15.55;;;8.27;;
73437;SDS011;66471;56.532;21.020;2023-01-19T10:29:17;15.30;;;7.55;;
73437;SDS011;66471;56.532;21.020;2023-01-19T10:32:07;22.17;;;8.40;;
73437;SDS011;66471;56.532;21.020;2023-01-19T10:34:39;20.75;;;8.43;;
73437;SDS011;66471;56.532;21.020;2023-01-19T10:39:51;24.00;;;10.13;;
73437;SDS011;66471;56.532;21.020;2023-01-19T10:42:20;16.60;;;7.97;;
73437;SDS011;66471;56.532;21.020;2023-01-19T10:44:48;15.70;;;6.35;;
73437;SDS011;66471;56.532;21.020;2023-01-19T10:47:19;22.90;;;10.95;;
73437;SDS011;66471;56.532;21.020;2023-01-19T10:49:49;16.50;;;8.17;;
73437;SDS011;66471;56.532;21.020;2023-01-19T10:52:18;15.90;;;7.97;;
73437;SDS011;66471;56.532;21.020;2023-01-19T10:55:06;21.75;;;12.55;;
73437;SDS011;66471;56.532;21.020;2023-01-19T10:57:48;13.23;;;7.60;;
73437;SDS011;66471;56.532;21.020;2023-01-19T11:05:48;15.98;;;7.25;;
73437;SDS011;66471;56.532;21.020;2023-01-19T11:08:36;12.45;;;5.53;;
73437;SDS011;66471;56.532;21.020;2023-01-19T11:11:03;12.27;;;6.13;;
73437;SDS011;66471;56.532;21.020;2023-01-19T11:13:37;12.65;;;7.03;;
73437;SDS011;66471;56.532;21.020;2023-01-19T11:18:53;16.73;;;7.38;;
73437;SDS011;66471;56.532;21.020;2023-01-19T11:21:23;20.15;;;11.07;;
73437;SDS011;66471;56.532;21.020;2023-01-19T11:23:52;16.30;;;8.95;;
73437;SDS011;66471;56.532;21.020;2023-01-19T11:26:32;12.85;;;6.90;;
73437;SDS011;66471;56.532;21.020;2023-01-19T11:29:13;12.07;;;6.43;;
73437;SDS011;66471;56.532;21.020;2023-01-19T11:31:46;14.70;;;7.75;;
73437;SDS011;66471;56.532;21.020;2023-01-19T11:36:55;16.30;;;9.00;;
73437;SDS011;66471;56.532;21.020;2023-01-19T11:39:24;18.23;;;9.68;;
73437;SDS011;66471;56.532;21.020;2023-01-19T11:41:55;14.70;;;7.80;;
73437;SDS011;66471;56.532;21.020;2023-01-19T11:44:31;14.70;;;7.97;;
73437;SDS011;66471;56.532;21.020;2023-01-19T11:47:02;13.10;;;7.25;;
73437;SDS011;66471;56.532;21.020;2023-01-19T11:52:30;24.73;;;11.18;;
73437;SDS011;66471;56.532;21.020;2023-01-19T11:57:38;20.52;;;9.23;;
73437;SDS011;66471;56.532;21.020;2023-01-19T12:00:21;21.83;;;11.63;;
73437;SDS011;66471;56.532;21.020;2023-01-19T12:02:56;21.02;;;10.48;;
73437;SDS011;66471;56.532;21.020;2023-01-19T12:05:30;21.40;;;11.00;;
73437;SDS011;66471;56.532;21.020;2023-01-19T12:07:59;22.43;;;10.37;;
73437;SDS011;66471;56.532;21.020;2023-01-19T12:10:33;23.98;;;11.70;;
73437;SDS011;66471;56.532;21.020;2023-01-19T12:13:03;25.10;;;12.18;;
73437;SDS011;66471;56.532;21.020;2023-01-19T12:15:32;20.77;;;10.68;;
73437;SDS011;66471;56.532;21.020;2023-01-19T12:18:04;17.55;;;11.35;;
73437;SDS011;66471;56.532;21.020;2023-01-19T12:26:19;16.92;;;8.82;;
73437;SDS011;66471;56.532;21.020;2023-01-19T12:28:53;10.60;;;5.40;;
73437;SDS011;66471;56.532;21.020;2023-01-19T12:31:24;13.50;;;6.90;;
73437;SDS011;66471;56.532;21.020;2023-01-19T12:33:51;11.77;;;6.27;;
73437;SDS011;66471;56.532;21.020;2023-01-19T12:41:35;16.40;;;5.88;;
73437;SDS011;66471;56.532;21.020;2023-01-19T12:46:38;16.90;;;7.43;;
73437;SDS011;66471;56.532;21.020;2023-01-19T12:49:25;17.95;;;8.55;;
73437;SDS011;66471;56.532;21.020;2023-01-19T12:52:17;15.35;;;7.47;;
73437;SDS011;66471;56.532;21.020;2023-01-19T12:57:36;13.70;;;6.57;;
73437;SDS011;66471;56.532;21.020;2023-01-19T13:00:47;13.83;;;6.57;;
73437;SDS011;66471;56.532;21.020;2023-01-19T13:02:59;14.55;;;5.65;;
73437;SDS011;66471;56.532;21.020;2023-01-19T13:21:35;12.25;;;5.40;;
73437;SDS011;66471;56.532;21.020;2023-01-19T13:24:06;16.98;;;7.38;;
73437;SDS011;66471;56.532;21.020;2023-01-19T13:26:35;13.37;;;6.10;;
73437;SDS011;66471;56.532;21.020;2023-01-19T13:29:33;11.93;;;6.10;;
73437;SDS011;66471;56.532;21.020;2023-01-19T13:32:04;16.33;;;7.70;;
73437;SDS011;66471;56.532;21.020;2023-01-19T13:34:39;11.48;;;5.55;;
73437;SDS011;66471;56.532;21.020;2023-01-19T13:37:19;12.25;;;6.40;;
73437;SDS011;66471;56.532;21.020;2023-01-19T13:39:50;19.30;;;7.20;;
73437;SDS011;66471;56.532;21.020;2023-01-19T13:42:32;11.70;;;5.35;;
73437;SDS011;66471;56.532;21.020;2023-01-19T13:47:51;9.95;;;4.75;;
73437;SDS011;66471;56.532;21.020;2023-01-19T13:50:22;11.85;;;5.75;;
73437;SDS011;66471;56.532;21.020;2023-01-19T13:52:50;12.40;;;6.03;;
73437;SDS011;66471;56.532;21.020;2023-01-19T13:55:21;12.75;;;7.47;;
73437;SDS011;66471;56.532;21.020;2023-01-19T13:57:49;14.00;;;6.45;;
73437;SDS011;66471;56.532;21.020;2023-01-19T14:00:22;15.98;;;6.97;;
73437;SDS011;66471;56.532;21.020;2023-01-19T14:05:41;15.53;;;7.00;;
73437;SDS011;66471;56.532;21.020;2023-01-19T14:13:31;13.00;;;5.38;;
73437;SDS011;66471;56.532;21.020;2023-01-19T14:16:04;12.27;;;6.45;;
73437;SDS011;66471;56.532;21.020;2023-01-19T14:18:34;14.00;;;5.87;;
73437;SDS011;66471;56.532;21.020;2023-01-19T14:21:02;9.18;;;3.38;;
73437;SDS011;66471;56.532;21.020;2023-01-19T14:23:45;7.95;;;3.55;;
73437;SDS011;66471;56.532;21.020;2023-01-19T14:34:49;17.90;;;7.47;;
73437;SDS011;66471;56.532;21.020;2023-01-19T14:37:30;14.02;;;7.60;;
73437;SDS011;66471;56.532;21.020;2023-01-19T14:42:55;22.58;;;9.77;;
73437;SDS011;66471;56.532;21.020;2023-01-19T14:45:33;29.50;;;13.50;;
73437;SDS011;66471;56.532;21.020;2023-01-19T14:48:05;31.52;;;13.40;;
73437;SDS011;66471;56.532;21.020;2023-01-19T14:50:43;31.75;;;13.13;;
73437;SDS011;66471;56.532;21.020;2023-01-19T14:53:27;24.98;;;11.40;;
73437;SDS011;66471;56.532;21.020;2023-01-19T14:55:57;44.63;;;20.15;;
73437;SDS011;66471;56.532;21.020;2023-01-19T14:58:28;20.33;;;8.97;;
73437;SDS011;66471;56.532;21.020;2023-01-19T15:00:57;19.30;;;9.20;;
73437;SDS011;66471;56.532;21.020;2023-01-19T15:03:25;25.95;;;12.55;;
73437;SDS011;66471;56.532;21.020;2023-01-19T15:06:14;16.25;;;8.40;;
73437;SDS011;66471;56.532;21.020;2023-01-19T15:08:43;20.88;;;11.18;;
73437;SDS011;66471;56.532;21.020;2023-01-19T15:11:19;15.47;;;7.73;;
73437;SDS011;66471;56.532;21.020;2023-01-19T15:13:47;16.13;;;8.13;;
73437;SDS011;66471;56.532;21.020;2023-01-19T15:16:15;18.15;;;10.25;;
73437;SDS011;66471;56.532;21.020;2023-01-19T15:18:42;20.90;;;9.52;;
73437;SDS011;66471;56.532;21.020;2023-01-19T15:21:16;20.63;;;10.70;;
73437;SDS011;66471;56.532;21.020;2023-01-19T15:23:45;17.27;;;9.23;;
73437;SDS011;66471;56.532;21.020;2023-01-19T15:26:16;16.92;;;9.10;;
73437;SDS011;66471;56.532;21.020;2023-01-19T15:28:46;16.45;;;8.00;;
73437;SDS011;66471;56.532;21.020;2023-01-19T15:31:20;13.30;;;6.35;;
73437;SDS011;66471;56.532;21.020;2023-01-19T15:33:49;15.75;;;7.63;;
73437;SDS011;66471;56.532;21.020;2023-01-19T15:36:17;12.83;;;5.90;;
73437;SDS011;66471;56.532;21.020;2023-01-19T15:38:46;11.70;;;5.65;;
73437;SDS011;66471;56.532;21.020;2023-01-19T15:41:26;14.18;;;7.30;;
73437;SDS011;66471;56.532;21.020;2023-01-19T15:43:55;12.18;;;7.07;;
73437;SDS011;66471;56.532;21.020;2023-01-19T15:46:23;14.27;;;8.30;;
73437;SDS011;66471;56.532;21.020;2023-01-19T15:48:51;18.50;;;8.10;;
73437;SDS011;66471;56.532;21.020;2023-01-19T15:51:20;19.40;;;8.88;;
73437;SDS011;66471;56.532;21.020;2023-01-19T15:53:48;20.73;;;10.05;;
73437;SDS011;66471;56.532;21.020;2023-01-19T15:56:16;19.00;;;10.35;;
73437;SDS011;66471;56.532;21.020;2023-01-19T15:58:52;14.75;;;7.75;;
73437;SDS011;66471;56.532;21.020;2023-01-19T16:01:20;13.97;;;6.07;;
73437;SDS011;66471;56.532;21.020;2023-01-19T16:03:49;16.70;;;8.15;;
73437;SDS011;66471;56.532;21.020;2023-01-19T16:06:16;22.35;;;10.95;;
73437;SDS011;66471;56.532;21.020;2023-01-19T16:08:44;17.88;;;9.60;;
73437;SDS011;66471;56.532;21.020;2023-01-19T16:11:12;24.85;;;12.02;;
73437;SDS011;66471;56.532;21.020;2023-01-19T16:13:44;20.30;;;11.40;;
73437;SDS011;66471;56.532;21.020;2023-01-19T16:16:15;19.38;;;9.70;;
73437;SDS011;66471;56.532;21.020;2023-01-19T16:18:45;24.30;;;11.75;;
73437;SDS011;66471;56.532;21.020;2023-01-19T16:21:12;22.65;;;13.20;;
73437;SDS011;66471;56.532;21.020;2023-01-19T16:23:40;28.33;;;13.70;;
73437;SDS011;66471;56.532;21.020;2023-01-19T16:26:20;29.07;;;11.63;;
73437;SDS011;66471;56.532;21.020;2023-01-19T16:29:00;24.65;;;11.35;;
73437;SDS011;66471;56.532;21.020;2023-01-19T16:31:34;27.08;;;12.48;;
73437;SDS011;66471;56.532;21.020;2023-01-19T16:34:02;30.30;;;14.73;;
73437;SDS011;66471;56.532;21.020;2023-01-19T16:36:30;35.55;;;17.23;;
73437;SDS011;66471;56.532;21.020;2023-01-19T16:38:59;30.70;;;15.00;;
73437;SDS011;66471;56.532;21.020;2023-01-19T16:41:28;52.03;;;21.30;;
73437;SDS011;66471;56.532;21.020;2023-01-19T16:43:56;55.00;;;24.35;;
73437;SDS011;66471;56.532;21.020;2023-01-19T16:46:24;43.00;;;20.42;;
73437;SDS011;66471;56.532;21.020;2023-01-19T16:48:53;34.22;;;16.13;;
73437;SDS011;66471;56.532;21.020;2023-01-19T16:51:25;36.90;;;15.63;;
73437;SDS011;66471;56.532;21.020;2023-01-19T16:53:52;39.60;;;16.55;;
73437;SDS011;66471;56.532;21.020;2023-01-19T16:56:19;26.35;;;13.48;;
73437;SDS011;66471;56.532;21.020;2023-01-19T16:58:46;21.77;;;10.27;;
73437;SDS011;66471;56.532;21.020;2023-01-19T17:01:15;20.98;;;11.35;;
73437;SDS011;66471;56.532;21.020;2023-01-19T17:03:45;24.90;;;10.77;;
73437;SDS011;66471;56.532;21.020;2023-01-19T17:06:14;29.50;;;12.32;;
73437;SDS011;66471;56.532;21.020;2023-01-19T17:08:43;31.08;;;15.77;;
73437;SDS011;66471;56.532;21.020;2023-01-19T17:11:12;38.47;;;20.23;;
73437;SDS011;66471;56.532;21.020;2023-01-19T17:13:46;40.53;;;20.20;;
73437;SDS011;66471;56.532;21.020;2023-01-19T17:16:21;43.87;;;21.67;;
73437;SDS011;66471;56.532;21.020;2023-01-19T17:18:49;23.67;;;12.07;;
73437;SDS011;66471;56.532;21.020;2023-01-19T17:21:17;20.30;;;9.90;;
73437;SDS011;66471;56.532;21.020;2023-01-19T17:23:46;24.05;;;10.10;;
73437;SDS011;66471;56.532;21.020;2023-01-19T17:26:15;22.52;;;9.55;;
73437;SDS011;66471;56.532;21.020;2023-01-19T17:28:42;20.97;;;10.13;;
73437;SDS011;66471;56.532;21.020;2023-01-19T17:31:14;18.63;;;8.45;;
73437;SDS011;66471;56.532;21.020;2023-01-19T17:33:43;20.73;;;10.80;;
73437;SDS011;66471;56.532;21.020;2023-01-19T17:36:12;19.27;;;9.27;;
73437;SDS011;66471;56.532;21.020;2023-01-19T17:38:41;19.63;;;10.27;;
73437;SDS011;66471;56.532;21.020;2023-01-19T17:41:15;23.47;;;9.67;;
73437;SDS011;66471;56.532;21.020;2023-01-19T17:43:47;20.10;;;9.30;;
73437;SDS011;66471;56.532;21.020;2023-01-19T17:46:19;23.48;;;11.68;;
73437;SDS011;66471;56.532;21.020;2023-01-19T17:48:55;30.58;;;11.20;;
73437;SDS011;66471;56.532;21.020;2023-01-19T17:51:24;28.40;;;12.43;;
73437;SDS011;66471;56.532;21.020;2023-01-19T17:53:52;32.73;;;13.10;;
73437;SDS011;66471;56.532;21.020;2023-01-19T17:56:21;36.17;;;13.60;;
73437;SDS011;66471;56.532;21.020;2023-01-19T17:58:52;40.38;;;15.00;;
73437;SDS011;66471;56.532;21.020;2023-01-19T18:01:20;50.60;;;16.67;;
73437;SDS011;66471;56.532;21.020;2023-01-19T18:03:48;49.08;;;13.85;;
73437;SDS011;66471;56.532;21.020;2023-01-19T18:06:15;53.43;;;16.67;;
73437;SDS011;66471;56.532;21.020;2023-01-19T18:08:43;41.95;;;14.48;;
73437;SDS011;66471;56.532;21.020;2023-01-19T18:20:49;40.92;;;15.95;;
73437;SDS011;66471;56.532;21.020;2023-01-19T18:23:17;46.33;;;13.83;;
73437;SDS011;66471;56.532;21.020;2023-01-19T18:25:44;46.67;;;15.45;;
73437;SDS011;66471;56.532;21.020;2023-01-19T18:28:11;49.15;;;16.65;;
73437;SDS011;66471;56.532;21.020;2023-01-19T18:30:38;49.10;;;16.98;;
73437;SDS011;66471;56.532;21.020;2023-01-19T18:33:05;55.58;;;17.50;;
73437;SDS011;66471;56.532;21.020;2023-01-19T18:35:32;55.27;;;20.97;;
73437;SDS011;66471;56.532;21.020;2023-01-19T18:37:59;47.83;;;16.00;;
73437;SDS011;66471;56.532;21.020;2023-01-19T18:40:26;52.05;;;15.98;;
73437;SDS011;66471;56.532;21.020;2023-01-19T18:42:54;43.05;;;13.48;;
73437;SDS011;66471;56.532;21.020;2023-01-19T18:45:21;56.05;;;18.48;;
73437;SDS011;66471;56.532;21.020;2023-01-19T18:47:48;44.43;;;17.53;;
73437;SDS011;66471;56.532;21.020;2023-01-19T18:50:18;48.22;;;15.65;;
73437;SDS011;66471;56.532;21.020;2023-01-19T18:52:46;50.85;;;17.27;;
73437;SDS011;66471;56.532;21.020;2023-01-19T18:55:14;56.53;;;14.70;;
73437;SDS011;66471;56.532;21.020;2023-01-19T18:57:41;44.75;;;14.80;;
73437;SDS011;66471;56.532;21.020;2023-01-19T19:00:08;57.50;;;15.90;;
73437;SDS011;66471;56.532;21.020;2023-01-19T19:02:36;60.72;;;16.15;;
73437;SDS011;66471;56.532;21.020;2023-01-19T19:05:03;58.28;;;15.15;;
73437;SDS011;66471;56.532;21.020;2023-01-19T19:07:30;47.00;;;13.60;;
73437;SDS011;66471;56.532;21.020;2023-01-19T19:09:57;41.35;;;13.85;;
73437;SDS011;66471;56.532;21.020;2023-01-19T19:12:24;83.97;;;16.83;;
73437;SDS011;66471;56.532;21.020;2023-01-19T19:14:51;64.57;;;16.63;;
73437;SDS011;66471;56.532;21.020;2023-01-19T19:17:19;50.97;;;15.13;;
73437;SDS011;66471;56.532;21.020;2023-01-19T19:19:46;61.60;;;15.57;;
73437;SDS011;66471;56.532;21.020;2023-01-19T19:22:14;79.10;;;15.13;;
73437;SDS011;66471;56.532;21.020;2023-01-19T19:24:41;67.53;;;13.10;;
73437;SDS011;66471;56.532;21.020;2023-01-19T19:27:08;76.40;;;13.02;;
73437;SDS011;66471;56.532;21.020;2023-01-19T19:29:39;58.30;;;12.70;;
